Time;durP1;ratioP1;P1;durP2;ratioP2;P2;SDS_P1;SDS_P2;PMS_P1;PMS_P2;Temp;Humidity;BMP_temperature;BMP_pressure;BME280_temperature;BME280_humidity;BME280_pressure;Samples;Min_cycle;Max_cycle;Signal;HPM_P1;HPM_P2
2023/04/12 00:02:45;;;;;;;12.00;10.80;;;;;;;5.91;94.36;98842.11;435604;1255;140583;-66
2023/04/12 00:12:52;;;;;;;16.70;13.20;;;;;;;5.85;94.74;98840.38;435781;1254;140506;-65
2023/04/12 00:22:57;;;;;;;13.60;12.30;;;;;;;5.82;95.27;98842.81;436245;1257;140467;-68
2023/04/12 00:33:03;;;;;;;15.60;12.70;;;;;;;5.82;95.77;98843.87;435397;1255;139665;-66
2023/04/12 00:43:14;;;;;;;14.60;13.00;;;;;;;5.84;96.03;98840.29;435252;1255;140562;-65
2023/04/12 00:53:20;;;;;;;15.40;13.70;;;;;;;5.77;96.48;98847.42;436147;1253;140109;-66
2023/04/12 01:03:29;;;;;;;15.90;11.30;;;;;;;5.79;96.86;98852.73;436511;1254;139409;-68
2023/04/12 01:13:39;;;;;;;12.40;10.80;;;;;;;5.76;96.84;98840.90;436973;1254;140150;-66
2023/04/12 01:23:58;;;;;;;11.70;10.50;;;;;;;5.68;97.10;98839.60;436554;1253;139356;-67
2023/04/12 01:34:05;;;;;;;12.50;10.70;;;;;;;5.58;97.31;98837.05;435782;1254;139725;-66
2023/04/12 01:44:12;;;;;;;15.60;12.00;;;;;;;5.51;97.52;98834.98;436362;1254;139392;-66
2023/04/12 01:54:19;;;;;;;;;;;;;;;5.45;98.11;98818.61;436121;1254;139909;-66
2023/04/12 02:04:26;;;;;;;11.00;9.90;;;;;;;5.40;98.66;98811.62;435859;1254;126844;-67
2023/04/12 02:14:32;;;;;;;13.90;11.00;;;;;;;5.38;99.48;98811.91;435604;1254;141130;-68
2023/04/12 02:24:38;;;;;;;14.00;12.10;;;;;;;5.41;100.00;98808.96;436232;1254;139446;-66
2023/04/12 02:34:50;;;;;;;15.70;11.50;;;;;;;5.41;100.00;98806.53;436284;1253;142866;-66
2023/04/12 02:44:56;;;;;;;12.20;11.00;;;;;;;5.40;100.00;98808.52;436308;1254;139476;-64
2023/04/12 02:55:02;;;;;;;12.00;10.70;;;;;;;5.38;100.00;98817.43;436041;1254;141153;-66
2023/04/12 03:05:09;;;;;;;13.00;11.60;;;;;;;5.36;100.00;98814.42;436024;1254;140604;-65
2023/04/12 03:15:16;;;;;;;11.10;9.70;;;;;;;5.36;100.00;98814.12;437170;1250;141272;-67
2023/04/12 03:25:22;;;;;;;12.60;10.20;;;;;;;5.34;100.00;98811.92;436454;1254;139614;-66
2023/04/12 03:35:28;;;;;;;12.20;10.40;;;;;;;5.39;100.00;98812.06;436296;1254;139482;-67
2023/04/12 03:45:34;;;;;;;12.50;11.30;;;;;;;5.37;100.00;98808.14;436098;1251;139494;-67
2023/04/12 03:55:40;;;;;;;12.50;11.20;;;;;;;5.39;100.00;98810.83;436078;1254;141103;-67
2023/04/12 04:05:46;;;;;;;13.00;11.40;;;;;;;5.40;100.00;98815.93;436114;1251;139429;-66
2023/04/12 04:16:02;;;;;;;15.60;13.40;;;;;;;5.45;100.00;98807.89;435679;1253;139990;-67
2023/04/12 04:26:09;;;;;;;16.00;12.90;;;;;;;5.46;100.00;98807.48;437614;1251;140093;-66
2023/04/12 04:36:15;;;;;;;;;;;;;;;5.44;100.00;98815.91;435575;1250;141317;-66
2023/04/12 04:46:21;;;;;;;16.70;12.60;;;;;;;5.47;100.00;98823.39;436130;1251;127748;-66
2023/04/12 04:56:27;;;;;;;16.80;12.80;;;;;;;5.57;100.00;98830.98;435851;1251;141009;-67
2023/04/12 05:06:33;;;;;;;17.30;13.30;;;;;;;5.65;100.00;98830.73;436279;1250;139455;-67
2023/04/12 05:16:39;;;;;;;14.80;13.20;;;;;;;5.68;100.00;98834.03;435705;1254;140762;-65
2023/04/12 05:26:45;;;;;;;15.10;11.20;;;;;;;5.70;100.00;98840.19;435264;1251;141169;-69
2023/04/12 05:36:52;;;;;;;14.60;12.30;;;;;;;5.73;100.00;98840.88;445156;1250;140454;-67
2023/04/12 05:46:57;;;;;;;14.10;11.90;;;;;;;5.79;100.00;98844.54;436013;1253;140214;-66
2023/04/12 05:57:03;;;;;;;16.40;11.90;;;;;;;6.00;100.00;98841.82;436423;1250;139907;-68
2023/04/12 06:07:09;;;;;;;17.10;13.00;;;;;;;6.12;100.00;98844.14;436759;1253;140856;-66
2023/04/12 06:17:15;;;;;;;19.50;13.20;;;;;;;6.16;100.00;98844.21;436993;1251;139820;-68
2023/04/12 06:27:21;;;;;;;16.70;14.40;;;;;;;6.23;100.00;98854.44;437040;1253;141368;-67
2023/04/12 06:37:27;;;;;;;21.10;16.30;;;;;;;6.23;100.00;98852.52;436975;1253;140323;-68
2023/04/12 06:47:33;;;;;;;18.80;15.90;;;;;;;6.31;100.00;98848.61;436707;1253;139298;-68
2023/04/12 06:57:41;;;;;;;22.90;16.80;;;;;;;6.39;100.00;98845.52;436666;1253;139980;-67
2023/04/12 07:07:48;;;;;;;15.30;13.00;;;;;;;6.61;100.00;98846.52;437097;1250;140062;-68
2023/04/12 07:17:53;;;;;;;17.20;15.20;;;;;;;6.77;100.00;98847.63;437134;1253;139568;-68
2023/04/12 07:27:59;;;;;;;19.70;15.00;;;;;;;6.95;100.00;98842.58;436665;1251;141080;-67
2023/04/12 07:38:05;;;;;;;20.90;14.50;;;;;;;7.08;99.76;98838.98;436772;1253;140589;-67
2023/04/12 07:48:11;;;;;;;18.60;15.00;;;;;;;7.05;99.89;98832.35;436798;1251;139127;-69
2023/04/12 07:58:17;;;;;;;15.10;13.20;;;;;;;7.31;99.79;98837.38;437068;1250;139992;-69
2023/04/12 08:08:23;;;;;;;11.70;10.50;;;;;;;7.76;98.80;98839.80;436754;1253;140042;-68
2023/04/12 08:18:30;;;;;;;11.60;10.30;;;;;;;7.81;97.02;98838.13;436786;1253;139247;-69
2023/04/12 08:28:36;;;;;;;10.30;8.40;;;;;;;7.75;96.97;98838.64;437009;1253;140426;-69
2023/04/12 08:38:44;;;;;;;11.00;8.40;;;;;;;8.22;96.46;98834.73;436781;1249;139106;-68
2023/04/12 08:48:53;;;;;;;9.00;8.10;;;;;;;8.63;95.10;98836.22;436755;1250;140853;-69
2023/04/12 08:59:00;;;;;;;8.90;6.70;;;;;;;8.64;93.82;98839.64;437673;1250;139498;-68
2023/04/12 09:09:06;;;;;;;7.60;6.80;;;;;;;8.35;92.97;98841.73;437132;1253;139662;-69
2023/04/12 09:19:12;;;;;;;8.10;7.40;;;;;;;8.47;92.65;98824.37;436575;1253;139798;-68
2023/04/12 09:29:25;;;;;;;8.90;7.60;;;;;;;8.55;91.76;98821.27;436895;1251;140313;-68
2023/04/12 09:39:34;;;;;;;8.40;6.20;;;;;;;9.12;91.65;98817.18;437047;1250;140026;-68
2023/04/12 09:49:44;;;;;;;7.10;6.40;;;;;;;9.56;90.61;98815.00;437012;1250;139503;-68
2023/04/12 09:59:52;;;;;;;7.60;4.90;;;;;;;9.90;89.17;98807.08;436909;1250;139236;-69
2023/04/12 10:10:00;;;;;;;8.20;6.90;;;;;;;10.54;87.93;98804.83;436675;1250;139655;-68
2023/04/12 10:20:09;;;;;;;9.80;6.90;;;;;;;10.62;86.85;98810.52;436677;1250;141206;-71
2023/04/12 10:30:29;;;;;;;5.00;4.60;;;;;;;10.82;85.71;98808.34;437337;1253;139969;-69
2023/04/12 10:40:37;;;;;;;8.60;6.00;;;;;;;11.04;84.50;98800.29;437202;1249;141348;-68
2023/04/12 10:50:44;;;;;;;7.70;7.00;;;;;;;11.19;83.18;98798.91;436714;1251;159778;-68
2023/04/12 11:01:11;;;;;;;7.50;6.50;;;;;;;10.87;82.56;98794.27;437470;1253;141343;-64
2023/04/12 11:11:21;;;;;;;7.70;7.00;;;;;;;10.68;82.48;98788.37;437219;1253;140576;-69
2023/04/12 11:21:28;;;;;;;8.00;7.20;;;;;;;10.54;82.85;98781.22;436663;1253;139374;-69
2023/04/12 11:31:34;;;;;;;9.80;7.30;;;;;;;10.39;82.37;98769.17;436888;1250;139973;-69
2023/04/12 11:41:45;;;;;;;13.20;8.20;;;;;;;10.40;82.08;98763.30;437022;1251;141077;-67
2023/04/12 11:52:03;;;;;;;9.70;8.40;;;;;;;10.48;81.83;98759.77;438450;1250;140330;-69
2023/04/12 12:02:10;;;;;;;12.00;7.70;;;;;;;10.70;80.78;98754.10;436898;1250;140124;-69
2023/04/12 12:12:29;;;;;;;8.10;7.00;;;;;;;10.72;79.65;98744.83;437183;1251;139579;-69
2023/04/12 12:22:35;;;;;;;9.30;7.60;;;;;;;10.76;79.24;98735.21;436988;1251;140019;-68
2023/04/12 12:32:41;;;;;;;10.30;7.90;;;;;;;11.02;78.69;98722.85;436782;1251;140232;-68
2023/04/12 12:42:50;;;;;;;15.00;9.50;;;;;;;11.15;77.99;98703.45;436608;1253;139697;-67
2023/04/12 12:52:58;;;;;;;11.60;7.70;;;;;;;11.82;77.42;98685.39;436884;1251;139715;-68
2023/04/12 13:03:04;;;;;;;9.70;8.30;;;;;;;12.01;75.05;98682.25;436883;1253;140078;-68
2023/04/12 13:13:11;;;;;;;7.50;6.70;;;;;;;11.98;74.65;98670.70;436739;1251;141422;-67
2023/04/12 13:23:17;;;;;;;11.10;7.40;;;;;;;12.25;73.68;98666.95;436770;1253;138726;-68
2023/04/12 13:33:23;;;;;;;5.40;4.80;;;;;;;12.22;72.48;98654.18;436698;1253;141346;-67
2023/04/12 13:43:29;;;;;;;6.10;5.50;;;;;;;11.94;71.45;98646.84;436492;1253;140529;-68
2023/04/12 13:53:36;;;;;;;8.90;6.60;;;;;;;12.17;71.33;98639.49;436720;1251;138459;-69
2023/04/12 14:03:42;;;;;;;8.00;6.40;;;;;;;12.04;70.53;98633.02;436626;1253;139693;-68
2023/04/12 14:13:49;;;;;;;8.60;7.20;;;;;;;11.62;70.58;98622.02;437285;1251;140263;-67
2023/04/12 14:23:55;;;;;;;7.00;6.30;;;;;;;11.28;70.66;98626.54;436365;1251;140322;-68
2023/04/12 14:34:01;;;;;;;7.60;5.70;;;;;;;11.09;70.82;98629.65;436093;1253;140471;-67
2023/04/12 14:44:08;;;;;;;7.50;6.70;;;;;;;11.17;70.66;98622.75;436234;1251;139906;-68
2023/04/12 14:54:14;;;;;;;8.20;6.40;;;;;;;11.07;70.59;98617.55;436144;1253;138549;-67
2023/04/12 15:04:20;;;;;;;9.20;6.60;;;;;;;11.10;70.73;98618.02;435294;1253;138448;-68
2023/04/12 15:14:27;;;;;;;10.80;6.90;;;;;;;11.31;70.84;98610.33;436210;1253;139093;-68
2023/04/12 15:24:33;;;;;;;8.60;7.80;;;;;;;11.21;69.61;98598.20;436915;1253;141010;-69
2023/04/12 15:34:39;;;;;;;7.60;6.00;;;;;;;10.98;69.97;98593.45;436970;1251;140145;-68
2023/04/12 15:44:46;;;;;;;6.90;6.30;;;;;;;11.19;70.05;98590.44;436347;1252;138874;-67
2023/04/12 15:54:52;;;;;;;8.70;7.50;;;;;;;11.10;69.66;98590.85;436502;1250;139064;-67
2023/04/12 16:04:59;;;;;;;8.40;6.70;;;;;;;10.86;70.14;98581.29;436679;1251;138446;-67
2023/04/12 16:15:07;;;;;;;8.90;7.20;;;;;;;10.41;70.87;98577.98;436136;1251;139077;-68
2023/04/12 16:25:13;;;;;;;11.40;8.20;;;;;;;9.86;71.56;98576.27;439991;1251;138427;-67
2023/04/12 16:35:20;;;;;;;13.80;9.20;;;;;;;9.34;72.85;98578.48;436212;1251;140097;-68
2023/04/12 16:45:26;;;;;;;18.20;11.20;;;;;;;8.92;74.34;98575.92;436207;1250;138903;-68
2023/04/12 16:55:33;;;;;;;12.50;10.20;;;;;;;8.58;75.90;98570.02;436944;1253;140631;-66
2023/04/12 17:05:39;;;;;;;14.30;10.20;;;;;;;8.35;76.97;98570.40;437200;1251;139566;-68
2023/04/12 17:15:47;;;;;;;17.10;11.30;;;;;;;8.10;78.06;98563.77;437220;1251;139707;-67
2023/04/12 17:25:54;;;;;;;13.30;9.80;;;;;;;7.81;78.46;98554.77;437716;1251;141226;-67
2023/04/12 17:36:02;;;;;;;15.30;11.80;;;;;;;7.55;79.14;98561.98;437579;1253;138986;-68
2023/04/12 17:46:09;;;;;;;15.50;12.20;;;;;;;7.26;80.02;98568.58;437437;1251;139462;-68
2023/04/12 17:56:15;;;;;;;17.70;12.20;;;;;;;6.97;81.10;98576.92;437102;1250;139614;-70
2023/04/12 18:06:22;;;;;;;17.90;13.70;;;;;;;6.68;81.82;98583.45;437318;1253;139283;-69
2023/04/12 18:16:29;;;;;;;20.20;14.60;;;;;;;6.42;82.61;98583.70;437179;1254;139332;-69
2023/04/12 18:26:35;;;;;;;21.90;14.80;;;;;;;6.25;84.17;98585.61;437074;1254;139580;-68
2023/04/12 18:36:41;;;;;;;18.90;13.30;;;;;;;6.19;85.17;98579.90;436119;1254;139486;-66
2023/04/12 18:46:48;;;;;;;16.30;12.60;;;;;;;6.07;85.28;98572.98;436155;1253;139955;-67
2023/04/12 18:56:56;;;;;;;19.30;14.50;;;;;;;5.96;85.62;98565.27;436852;1253;139501;-66
2023/04/12 19:07:02;;;;;;;21.40;16.10;;;;;;;5.86;86.06;98561.20;435964;1251;140234;-67
2023/04/12 19:17:09;;;;;;;27.00;16.70;;;;;;;5.73;86.28;98559.20;435816;1254;139351;-67
2023/04/12 19:27:16;;;;;;;25.40;17.90;;;;;;;5.57;86.85;98554.79;436211;1253;139842;-68
2023/04/12 19:37:23;;;;;;;26.20;17.00;;;;;;;5.42;87.16;98551.85;437016;1254;140306;-67
2023/04/12 19:47:29;;;;;;;28.20;19.00;;;;;;;5.17;88.18;98552.40;436601;1253;140592;-66
2023/04/12 19:57:36;;;;;;;28.50;21.40;;;;;;;5.03;89.02;98550.29;435686;1255;139680;-68
2023/04/12 20:07:43;;;;;;;32.10;21.40;;;;;;;4.92;90.02;98543.62;435985;1255;140781;-66
2023/04/12 20:17:50;;;;;;;39.30;25.30;;;;;;;4.73;90.72;98534.45;436481;1255;140194;-66
2023/04/12 20:27:57;;;;;;;29.30;21.60;;;;;;;4.56;91.39;98530.91;437275;1255;140758;-67
2023/04/12 20:38:04;;;;;;;39.40;24.90;;;;;;;4.41;92.23;98526.55;436335;1254;139733;-67
2023/04/12 20:48:10;;;;;;;35.30;22.70;;;;;;;4.36;92.78;98517.63;435818;1253;141747;-67
2023/04/12 20:58:17;;;;;;;34.70;21.60;;;;;;;4.32;93.52;98514.73;435967;1256;140707;-66
2023/04/12 21:08:24;;;;;;;32.60;22.70;;;;;;;4.15;93.57;98518.96;436321;1254;139836;-67
2023/04/12 21:18:32;;;;;;;32.90;21.90;;;;;;;3.98;93.93;98531.48;436232;1254;139249;-67
2023/04/12 21:28:39;;;;;;;31.50;21.70;;;;;;;3.71;94.47;98539.27;435840;1254;140558;-66
2023/04/12 21:38:45;;;;;;;32.70;24.30;;;;;;;3.51;95.26;98540.30;435803;1251;140523;-65
2023/04/12 21:48:51;;;;;;;30.80;19.90;;;;;;;3.49;96.07;98528.15;436306;1254;139559;-66
2023/04/12 21:58:58;;;;;;;26.30;18.60;;;;;;;3.50;96.58;98512.14;436067;1251;140110;-66
2023/04/12 22:09:04;;;;;;;29.40;19.70;;;;;;;3.55;96.72;98498.05;436113;1251;140240;-66
2023/04/12 22:19:11;;;;;;;25.80;18.80;;;;;;;3.62;97.23;98496.48;435919;1254;141352;-67
2023/04/12 22:29:17;;;;;;;33.40;20.40;;;;;;;3.51;97.22;98489.95;435924;1254;140031;-67
2023/04/12 22:39:23;;;;;;;25.40;18.70;;;;;;;3.40;97.49;98482.42;436537;1251;139607;-67
2023/04/12 22:49:29;;;;;;;26.70;17.80;;;;;;;3.31;97.35;98474.04;436649;1251;185918;-67
2023/04/12 22:59:35;;;;;;;27.40;20.60;;;;;;;3.28;98.24;98456.04;436917;1253;139029;-67
2023/04/12 23:09:41;;;;;;;28.80;20.00;;;;;;;3.25;98.78;98444.63;436955;1251;139184;-66
2023/04/12 23:19:49;;;;;;;28.10;19.90;;;;;;;3.26;99.48;98428.64;436713;1251;139555;-67
2023/04/12 23:29:55;;;;;;;24.50;18.70;;;;;;;3.24;99.49;98425.80;436923;1251;139306;-67
2023/04/12 23:40:05;;;;;;;23.00;18.50;;;;;;;3.25;99.52;98416.07;436653;1251;139669;-66
2023/04/12 23:50:12;;;;;;;26.30;17.50;;;;;;;3.20;99.67;98413.72;436318;1253;139711;-65
